Terminal Aerodrome Forecast
Issued by NWS Pendleton, OR

Home | Current Version | Previous Version | Text Only | Print | Product List | Glossary On
Versions: 1 2 3 4 5 6 7 8 9 10 11 12 13 14 15
000
FTUS46 KPDT 222300
TAFPDT
TAF
KPDT 222320Z 2300/2324 35008KT P6SM VCTS SCT060CB BKN100
      TEMPO 2300/2304 5SM -TSRA BKN040CB OVC100
     FM231000 15007KT P6SM BKN100
     FM231800 25015G25KT P6SM SCT050 BKN100=

USA.gov is the U.S. government's official web portal to all federal, state and local government web resources and services.